Airport View

Enter AWOS ICAO identifier for current METAR.

ex. KFNL

KETH 100317Z AUTO 00000KT 10SM CLR 21/16 A2994 RMK AO2

10 Jul 2020 03:42

Frequency: 118.775

Phone: 320-563-4975

Other Area AWOS: K8D3 - KY63 - KMOX - KBWP

TAF AMD KAXN 100157Z 1002/1024 28004KT P6SM SKC FM101700 29008KT P6SM SKC